createdAt,value
2022-11-12T00:02:30.528Z,4.74
2022-11-12T00:05:15.777Z,4.83
2022-11-12T00:08:01.688Z,4.85
2022-11-12T00:10:48.582Z,4.83
2022-11-12T00:13:33.685Z,4.66
2022-11-12T00:16:19.099Z,4.72
2022-11-12T00:19:04.255Z,4.76
2022-11-12T00:21:49.533Z,4.69
2022-11-12T00:24:34.662Z,4.55
2022-11-12T00:27:20.246Z,4.51
2022-11-12T00:30:06.875Z,4.47
2022-11-12T00:32:52.003Z,4.47
2022-11-12T00:35:37.473Z,4.61
2022-11-12T00:38:24.280Z,4.63
2022-11-12T00:41:09.636Z,4.65
2022-11-12T00:43:54.773Z,4.72
2022-11-12T00:46:40.089Z,4.62
2022-11-12T00:49:25.599Z,4.57
2022-11-12T00:52:11.095Z,4.48
2022-11-12T00:54:56.538Z,4.67
2022-11-12T00:57:41.729Z,4.56
2022-11-12T01:00:27.380Z,4.71
2022-11-12T01:03:12.737Z,4.68
2022-11-12T01:06:24.948Z,4.69
2022-11-12T01:09:10.607Z,4.71
2022-11-12T01:11:55.837Z,4.60
2022-11-12T01:14:41.331Z,4.46
2022-11-12T01:17:26.822Z,4.39
2022-11-12T01:20:12.430Z,4.41
2022-11-12T01:22:58.127Z,4.40
2022-11-12T01:25:43.479Z,4.49
2022-11-12T01:28:29.373Z,4.31
2022-11-12T01:31:18.087Z,4.25
2022-11-12T01:34:06.859Z,4.16
2022-11-12T01:36:52.330Z,4.19
2022-11-12T01:39:37.734Z,4.08
2022-11-12T01:42:29.998Z,4.21
2022-11-12T01:45:15.695Z,4.36
2022-11-12T01:48:02.261Z,4.48
2022-11-12T01:50:48.101Z,4.40
2022-11-12T01:53:39.120Z,4.42
2022-11-12T01:56:28.880Z,4.31
2022-11-12T01:59:20.061Z,4.31
2022-11-12T02:02:05.653Z,4.39
2022-11-12T02:04:51.998Z,4.44
2022-11-12T02:07:41.082Z,4.55
2022-11-12T02:10:27.754Z,4.61
2022-11-12T02:13:13.238Z,4.78
2022-11-12T02:15:58.622Z,4.72
2022-11-12T02:18:44.129Z,4.90
2022-11-12T02:21:30.196Z,4.98
2022-11-12T02:24:16.160Z,5.01
2022-11-12T02:27:01.915Z,4.86
2022-11-12T02:29:47.121Z,4.90
2022-11-12T02:32:32.686Z,4.93
2022-11-12T02:35:17.722Z,4.94
2022-11-12T02:38:04.825Z,5.01
2022-11-12T02:40:50.321Z,5.05
2022-11-12T02:43:35.755Z,5.10
2022-11-12T02:46:21.378Z,5.14
2022-11-12T02:49:06.880Z,5.17
2022-11-12T02:51:52.434Z,5.27
2022-11-12T02:54:37.902Z,5.37
2022-11-12T02:57:23.166Z,5.46
2022-11-12T03:00:12.122Z,5.50
2022-11-12T03:02:57.466Z,5.49
2022-11-12T03:05:44.136Z,5.47
2022-11-12T03:08:29.912Z,5.37
2022-11-12T03:11:17.146Z,5.31
2022-11-12T03:14:02.779Z,5.25
2022-11-12T03:16:48.221Z,5.26
2022-11-12T03:19:33.485Z,5.22
2022-11-12T03:22:18.854Z,5.24
2022-11-12T03:25:05.205Z,5.21
2022-11-12T03:28:04.584Z,5.28
2022-11-12T03:30:50.125Z,5.29
2022-11-12T03:33:35.397Z,5.36
2022-11-12T03:36:20.842Z,5.56
2022-11-12T03:39:06.130Z,5.64
2022-11-12T03:41:51.347Z,5.68
2022-11-12T03:44:36.658Z,5.70
2022-11-12T03:47:21.755Z,5.63
2022-11-12T03:50:07.280Z,5.57
2022-11-12T03:52:55.378Z,5.36
2022-11-12T03:55:40.854Z,5.36
2022-11-12T03:58:26.569Z,5.46
2022-11-12T04:01:12.244Z,5.35
2022-11-12T04:03:57.986Z,5.26
2022-11-12T04:06:43.391Z,5.19
2022-11-12T04:09:29.067Z,5.03
2022-11-12T04:12:14.489Z,4.98
2022-11-12T04:14:59.530Z,4.92
2022-11-12T04:17:44.837Z,4.95
2022-11-12T04:20:30.078Z,5.03
2022-11-12T04:23:15.407Z,5.02
2022-11-12T04:26:00.810Z,4.91
2022-11-12T04:28:45.968Z,4.89
2022-11-12T04:31:31.098Z,4.77
2022-11-12T04:34:16.601Z,4.66
2022-11-12T04:37:06.470Z,4.56
2022-11-12T04:39:52.996Z,4.46
2022-11-12T04:42:38.060Z,4.46
2022-11-12T04:45:23.859Z,4.54
2022-11-12T04:48:09.790Z,4.35
2022-11-12T04:51:04.911Z,4.34
2022-11-12T04:53:50.166Z,4.21
2022-11-12T04:56:35.479Z,3.95
2022-11-12T04:59:20.542Z,4.04
2022-11-12T05:02:05.810Z,3.86
2022-11-12T05:04:51.102Z,3.91
2022-11-12T05:07:36.244Z,3.73
2022-11-12T05:10:21.313Z,3.63
2022-11-12T05:13:06.590Z,3.59
2022-11-12T05:15:51.822Z,3.62
2022-11-12T05:18:37.264Z,3.72
2022-11-12T05:21:22.284Z,3.72
2022-11-12T05:24:07.824Z,3.89
2022-11-12T05:26:53.982Z,3.90
2022-11-12T05:29:39.699Z,3.60
2022-11-12T05:32:26.725Z,3.54
2022-11-12T05:35:11.834Z,3.53
2022-11-12T05:37:57.125Z,3.44
2022-11-12T05:40:45.307Z,3.42
2022-11-12T05:43:30.804Z,3.50
2022-11-12T05:46:15.952Z,3.51
2022-11-12T05:49:01.323Z,3.59
2022-11-12T05:51:46.718Z,3.50
2022-11-12T05:54:31.990Z,3.33
2022-11-12T05:57:17.133Z,3.33
2022-11-12T06:00:02.580Z,3.22
2022-11-12T06:02:47.787Z,3.26
2022-11-12T06:05:34.613Z,3.25
2022-11-12T06:08:20.106Z,3.32
2022-11-12T06:11:05.738Z,3.42
2022-11-12T06:13:51.057Z,3.24
2022-11-12T06:16:36.318Z,3.22
2022-11-12T06:19:21.573Z,3.21
2022-11-12T06:22:06.767Z,3.21
2022-11-12T06:24:51.927Z,3.27
2022-11-12T06:27:37.446Z,3.26
2022-11-12T06:30:25.872Z,3.39
2022-11-12T06:33:11.739Z,3.44
2022-11-12T06:36:01.568Z,3.42
2022-11-12T06:38:47.456Z,3.59
2022-11-12T06:41:33.035Z,3.71
2022-11-12T06:44:22.116Z,3.89
2022-11-12T06:47:07.758Z,3.95
2022-11-12T06:49:53.368Z,4.02
2022-11-12T06:52:38.689Z,4.10
2022-11-12T06:55:23.932Z,4.18
2022-11-12T06:58:09.168Z,4.24
2022-11-12T07:00:54.475Z,4.31
2022-11-12T07:03:40.991Z,4.39
2022-11-12T07:06:26.771Z,4.45
2022-11-12T07:09:11.843Z,4.52
2022-11-12T07:11:57.262Z,4.60
2022-11-12T07:14:42.407Z,4.66
2022-11-12T07:17:28.133Z,4.70
2022-11-12T07:20:14.073Z,4.75
2022-11-12T07:23:02.738Z,4.79
2022-11-12T07:25:55.217Z,4.87
2022-11-12T07:28:40.910Z,4.95
2022-11-12T07:31:26.314Z,4.99
2022-11-12T07:34:11.633Z,5.12
2022-11-12T07:36:56.811Z,5.25
2022-11-12T07:39:43.032Z,5.33
2022-11-12T07:42:28.685Z,5.38
2022-11-12T07:45:15.321Z,5.50
2022-11-12T07:48:00.586Z,5.62
2022-11-12T07:50:45.893Z,5.72
2022-11-12T07:53:31.395Z,5.84
2022-11-12T07:56:20.114Z,5.91
2022-11-12T07:59:05.544Z,5.97
2022-11-12T08:01:51.050Z,6.10
2022-11-12T08:04:36.177Z,6.13
2022-11-12T08:07:21.842Z,6.23
2022-11-12T08:10:08.238Z,6.32
2022-11-12T08:12:56.667Z,6.46
2022-11-12T08:15:42.219Z,6.59
2022-11-12T08:18:28.448Z,6.79
2022-11-12T08:21:16.116Z,6.92
2022-11-12T08:24:01.535Z,7.03
2022-11-12T08:26:47.419Z,7.13
2022-11-12T08:29:32.645Z,7.33
2022-11-12T08:32:17.888Z,7.54
2022-11-12T08:35:03.453Z,7.71
2022-11-12T08:37:48.891Z,7.90
2022-11-12T08:40:34.668Z,8.06
2022-11-12T08:43:20.049Z,8.23
2022-11-12T08:46:05.403Z,8.41
2022-11-12T08:48:50.590Z,8.52
2022-11-12T08:51:36.076Z,8.61
2022-11-12T08:54:21.950Z,8.73
2022-11-12T08:57:07.331Z,8.83
2022-11-12T08:59:52.364Z,8.94
2022-11-12T09:02:37.808Z,8.99
2022-11-12T09:05:23.164Z,9.14
2022-11-12T09:08:15.236Z,9.18
2022-11-12T09:11:00.931Z,9.37
2022-11-12T09:13:46.166Z,9.47
2022-11-12T09:16:31.569Z,9.72
2022-11-12T09:19:16.842Z,9.92
2022-11-12T09:22:03.541Z,10.02
2022-11-12T09:24:49.829Z,10.12
2022-11-12T09:27:36.424Z,10.28
2022-11-12T09:30:23.010Z,10.30
2022-11-12T09:33:08.276Z,10.39
2022-11-12T09:35:54.298Z,10.51
2022-11-12T09:38:39.688Z,10.57
2022-11-12T09:41:41.890Z,10.74
2022-11-12T09:44:27.123Z,10.82
2022-11-12T09:47:41.616Z,10.95
2022-11-12T09:50:34.048Z,11.07
2022-11-12T09:53:28.638Z,11.15
2022-11-12T09:56:16.569Z,11.23
2022-11-12T09:59:01.869Z,11.25
2022-11-12T10:02:18.589Z,11.32
2022-11-12T10:05:25.638Z,11.41
2022-11-12T10:08:30.231Z,11.38
2022-11-12T10:12:12.998Z,11.44
2022-11-12T10:15:19.554Z,11.53
2022-11-12T10:18:16.331Z,11.59
2022-11-12T10:21:23.610Z,11.90
2022-11-12T10:24:11.422Z,12.04
2022-11-12T10:26:57.731Z,12.05
2022-11-12T10:29:57.782Z,12.25
2022-11-12T10:32:45.510Z,12.30
2022-11-12T10:35:30.871Z,12.31
2022-11-12T10:38:25.602Z,12.34
2022-11-12T10:41:30.333Z,12.34
2022-11-12T10:44:25.473Z,12.36
2022-11-12T10:47:33.272Z,12.36
2022-11-12T10:50:24.063Z,12.32
2022-11-12T10:53:12.552Z,12.31
2022-11-12T10:56:03.792Z,12.31
2022-11-12T10:59:18.968Z,12.43
2022-11-12T11:02:18.103Z,12.51
2022-11-12T11:05:25.526Z,12.91
2022-11-12T11:08:11.168Z,13.12
2022-11-12T11:11:16.580Z,13.24
2022-11-12T11:14:24.847Z,13.34
2022-11-12T11:17:17.757Z,13.28
2022-11-12T11:20:10.807Z,13.26
2022-11-12T11:22:56.136Z,13.17
2022-11-12T11:25:43.932Z,13.28
2022-11-12T11:28:47.224Z,13.30
2022-11-12T11:31:45.867Z,13.23
2022-11-12T11:34:47.775Z,13.21
2022-11-12T11:37:45.829Z,13.36
2022-11-12T11:40:38.346Z,13.29
2022-11-12T11:43:38.110Z,13.21
2022-11-12T11:46:45.410Z,13.16
2022-11-12T11:49:46.225Z,13.15
2022-11-12T11:53:16.071Z,13.11
2022-11-12T11:56:13.448Z,13.17
2022-11-12T11:59:06.020Z,13.20
2022-11-12T12:01:57.156Z,13.19
2022-11-12T12:04:48.618Z,13.15
2022-11-12T12:07:55.721Z,13.27
2022-11-12T12:11:08.242Z,13.58
2022-11-12T12:14:06.530Z,13.79
2022-11-12T12:17:12.298Z,13.81
2022-11-12T12:20:05.198Z,13.73
2022-11-12T12:22:56.750Z,13.73
2022-11-12T12:25:45.120Z,13.68
2022-11-12T12:29:15.470Z,13.59
2022-11-12T12:32:23.956Z,13.61
2022-11-12T12:35:31.771Z,13.71
2022-11-12T12:38:35.319Z,13.85
2022-11-12T12:41:29.578Z,13.85
2022-11-12T12:44:15.048Z,13.81
2022-11-12T12:47:02.681Z,13.78
2022-11-12T12:49:50.746Z,13.78
2022-11-12T12:53:17.021Z,13.73
2022-11-12T12:56:14.655Z,13.66
2022-11-12T12:59:01.984Z,13.69
2022-11-12T13:02:02.287Z,13.70
2022-11-12T13:04:56.835Z,13.75
2022-11-12T13:07:48.927Z,13.84
2022-11-12T13:10:40.485Z,13.87
2022-11-12T13:13:35.973Z,13.97
2022-11-12T13:16:53.395Z,14.02
2022-11-12T13:19:54.088Z,14.09
2022-11-12T13:22:39.551Z,14.18
2022-11-12T13:25:31.204Z,14.17
2022-11-12T13:28:16.776Z,14.12
2022-11-12T13:31:04.221Z,14.04
2022-11-12T13:33:49.768Z,14.02
2022-11-12T13:36:35.316Z,13.96
2022-11-12T13:39:22.337Z,13.92
2022-11-12T13:42:17.561Z,13.89
2022-11-12T13:45:06.197Z,13.87
2022-11-12T13:47:53.265Z,13.86
2022-11-12T13:50:40.616Z,13.89
2022-11-12T13:53:29.529Z,13.89
2022-11-12T13:56:31.074Z,13.89
2022-11-12T13:59:17.698Z,13.84
2022-11-12T14:02:05.807Z,13.80
2022-11-12T14:04:52.753Z,13.75
2022-11-12T14:07:59.837Z,13.76
2022-11-12T14:11:16.081Z,13.75
2022-11-12T14:14:23.089Z,13.70
2022-11-12T14:17:31.321Z,13.65
2022-11-12T14:20:16.789Z,13.57
2022-11-12T14:23:24.531Z,13.46
2022-11-12T14:26:12.715Z,13.40
2022-11-12T14:28:59.023Z,13.37
2022-11-12T14:31:44.753Z,13.30
2022-11-12T14:34:32.743Z,13.26
2022-11-12T14:37:43.385Z,13.16
2022-11-12T14:40:32.605Z,13.17
2022-11-12T14:43:28.008Z,13.10
2022-11-12T14:46:49.483Z,13.02
2022-11-12T14:49:44.923Z,12.83
2022-11-12T14:52:36.252Z,12.79
2022-11-12T14:55:26.709Z,12.75
2022-11-12T14:58:15.610Z,12.72
2022-11-12T15:04:38.094Z,12.59
2022-11-12T15:07:27.936Z,12.51
2022-11-12T15:10:33.896Z,12.39
2022-11-12T15:13:22.446Z,12.33
2022-11-12T15:16:09.619Z,12.15
2022-11-12T15:19:03.281Z,12.12
2022-11-12T15:21:52.076Z,12.10
2022-11-12T15:24:38.164Z,12.02
2022-11-12T15:27:35.084Z,11.65
2022-11-12T15:30:22.988Z,11.54
2022-11-12T15:33:11.464Z,11.70
2022-11-12T15:35:59.940Z,11.69
2022-11-12T15:38:54.021Z,11.21
2022-11-12T15:41:40.368Z,10.87
2022-11-12T15:44:26.547Z,10.94
2022-11-12T15:47:22.060Z,10.86
2022-11-12T15:50:19.830Z,10.74
2022-11-12T15:53:06.008Z,10.55
2022-11-12T15:55:52.289Z,10.52
2022-11-12T15:58:38.042Z,10.53
2022-11-12T16:01:23.602Z,10.21
2022-11-12T16:04:11.660Z,9.99
2022-11-12T16:06:57.217Z,10.01
2022-11-12T16:09:42.843Z,9.72
2022-11-12T16:12:28.615Z,9.62
2022-11-12T16:15:18.551Z,9.81
2022-11-12T16:18:03.898Z,9.63
2022-11-12T16:20:50.084Z,9.61
2022-11-12T16:23:35.686Z,9.50
2022-11-12T16:26:28.145Z,9.42
2022-11-12T16:29:14.268Z,9.19
2022-11-12T16:31:59.904Z,9.24
2022-11-12T16:34:44.960Z,9.22
2022-11-12T16:37:30.817Z,9.13
2022-11-12T16:40:24.665Z,8.85
2022-11-12T16:43:10.008Z,8.84
2022-11-12T16:45:55.725Z,8.67
2022-11-12T16:48:40.984Z,8.45
2022-11-12T16:51:26.248Z,8.30
2022-11-12T16:54:12.112Z,8.27
2022-11-12T16:56:57.525Z,8.45
2022-11-12T16:59:43.295Z,8.24
2022-11-12T17:02:28.662Z,8.02
2022-11-12T17:05:21.162Z,7.84
2022-11-12T17:08:06.510Z,8.09
2022-11-12T17:10:52.418Z,8.20
2022-11-12T17:13:38.830Z,7.95
2022-11-12T17:16:25.029Z,7.85
2022-11-12T17:19:10.578Z,7.80
2022-11-12T17:21:56.138Z,7.84
2022-11-12T17:24:41.505Z,7.80
2022-11-12T17:27:26.857Z,7.71
2022-11-12T17:30:13.446Z,7.83
2022-11-12T17:33:00.125Z,7.79
2022-11-12T17:35:46.098Z,7.72
2022-11-12T17:38:33.195Z,7.74
2022-11-12T17:41:18.605Z,7.71
2022-11-12T17:44:06.127Z,7.92
2022-11-12T17:46:51.565Z,7.60
2022-11-12T17:49:37.435Z,7.36
2022-11-12T17:52:24.332Z,7.14
2022-11-12T17:55:10.177Z,6.93
2022-11-12T17:57:58.402Z,7.00
2022-11-12T18:00:44.472Z,7.02
2022-11-12T18:03:30.232Z,6.80
2022-11-12T18:06:35.397Z,6.77
2022-11-12T18:09:21.739Z,7.28
2022-11-12T18:12:08.268Z,7.16
2022-11-12T18:14:54.050Z,7.14
2022-11-12T18:17:39.903Z,6.84
2022-11-12T18:20:25.820Z,6.72
2022-11-12T18:23:12.880Z,6.65
2022-11-12T18:26:00.724Z,6.46
2022-11-12T18:28:52.558Z,6.37
2022-11-12T18:31:38.669Z,6.24
2022-11-12T18:34:25.234Z,6.15
2022-11-12T18:37:13.905Z,6.11
2022-11-12T18:39:59.538Z,6.11
2022-11-12T18:42:45.387Z,6.11
2022-11-12T18:45:31.049Z,6.07
2022-11-12T18:48:17.855Z,6.00
2022-11-12T18:51:09.431Z,5.96
2022-11-12T18:53:55.915Z,5.87
2022-11-12T18:56:42.511Z,5.86
2022-11-12T18:59:28.274Z,5.82
2022-11-12T19:02:14.134Z,5.75
2022-11-12T19:04:59.731Z,5.78
2022-11-12T19:07:46.095Z,5.96
2022-11-12T19:10:31.817Z,6.32
2022-11-12T19:13:17.306Z,6.08
2022-11-12T19:16:05.709Z,5.89
2022-11-12T19:18:52.088Z,5.82
2022-11-12T19:21:38.744Z,5.63
2022-11-12T19:24:24.369Z,5.60
2022-11-12T19:27:10.164Z,5.62
2022-11-12T19:30:02.461Z,5.55
2022-11-12T19:32:50.391Z,5.51
2022-11-12T19:35:36.095Z,5.52
2022-11-12T19:38:21.605Z,5.52
2022-11-12T19:41:14.723Z,5.54
2022-11-12T19:44:03.950Z,5.50
2022-11-12T19:46:49.787Z,5.50
2022-11-12T19:49:35.815Z,5.41
2022-11-12T19:52:22.630Z,5.44
2022-11-12T19:55:09.338Z,5.53
2022-11-12T19:57:56.526Z,5.66
2022-11-12T20:00:42.705Z,5.65
2022-11-12T20:03:30.372Z,5.90
2022-11-12T20:06:18.922Z,6.02
2022-11-12T20:09:04.607Z,6.02
2022-11-12T20:11:50.506Z,5.58
2022-11-12T20:14:36.412Z,5.34
2022-11-12T20:17:22.290Z,5.21
2022-11-12T20:20:09.260Z,5.22
2022-11-12T20:22:55.718Z,5.14
2022-11-12T20:25:41.789Z,5.16
2022-11-12T20:28:27.923Z,5.19
2022-11-12T20:31:16.775Z,5.00
2022-11-12T20:34:02.441Z,4.77
2022-11-12T20:36:48.101Z,4.74
2022-11-12T20:39:33.716Z,4.78
2022-11-12T20:42:20.368Z,4.75
2022-11-12T20:45:06.759Z,4.68
2022-11-12T20:47:52.186Z,4.65
2022-11-12T20:50:38.269Z,4.68
2022-11-12T20:53:24.310Z,4.63
2022-11-12T20:56:14.669Z,4.57
2022-11-12T20:59:02.067Z,4.61
2022-11-12T21:01:47.843Z,4.64
2022-11-12T21:04:34.643Z,4.67
2022-11-12T21:07:20.291Z,4.57
2022-11-12T21:10:06.389Z,4.67
2022-11-12T21:12:51.891Z,4.51
2022-11-12T21:15:38.425Z,4.60
2022-11-12T21:18:29.146Z,4.40
2022-11-12T21:21:18.773Z,4.65
2022-11-12T21:24:05.253Z,4.52
2022-11-12T21:26:51.889Z,4.43
2022-11-12T21:29:37.546Z,4.62
2022-11-12T21:32:23.277Z,4.95
2022-11-12T21:35:08.779Z,5.09
2022-11-12T21:37:54.094Z,5.19
2022-11-12T21:40:39.358Z,5.17
2022-11-12T21:43:24.550Z,4.73
2022-11-12T21:46:19.217Z,4.61
2022-11-12T21:49:04.688Z,4.53
2022-11-12T21:51:50.375Z,4.55
2022-11-12T21:54:35.488Z,4.30
2022-11-12T21:57:21.016Z,4.22
2022-11-12T22:00:39.689Z,4.18
2022-11-12T22:03:12.678Z,4.10
2022-11-12T22:05:59.926Z,4.07
2022-11-12T22:08:46.368Z,4.13
2022-11-12T22:11:31.637Z,4.15
2022-11-12T22:14:16.887Z,4.08
2022-11-12T22:17:02.133Z,4.09
2022-11-12T22:19:48.382Z,4.10
2022-11-12T22:22:34.009Z,4.08
2022-11-12T22:25:20.309Z,4.03
2022-11-12T22:28:05.648Z,3.97
2022-11-12T22:30:52.412Z,3.99
2022-11-12T22:33:38.109Z,4.24
2022-11-12T22:36:27.005Z,4.46
2022-11-12T22:39:12.385Z,4.56
2022-11-12T22:41:57.508Z,4.64
2022-11-12T22:44:42.907Z,4.50
2022-11-12T22:47:28.152Z,4.43
2022-11-12T22:50:13.550Z,4.14
2022-11-12T22:52:59.130Z,4.13
2022-11-12T22:55:44.583Z,4.09
2022-11-12T22:58:30.291Z,4.31
2022-11-12T23:01:24.244Z,4.52
2022-11-12T23:04:09.665Z,4.36
2022-11-12T23:06:55.044Z,4.05
2022-11-12T23:09:40.310Z,4.11
2022-11-12T23:12:25.805Z,4.00
2022-11-12T23:15:11.452Z,3.90
2022-11-12T23:17:57.694Z,3.85
2022-11-12T23:20:42.955Z,3.86
2022-11-12T23:23:28.553Z,3.74
2022-11-12T23:26:16.929Z,3.71
2022-11-12T23:29:02.524Z,3.62
2022-11-12T23:31:47.914Z,3.60
2022-11-12T23:34:33.109Z,3.67
2022-11-12T23:37:18.662Z,3.58
2022-11-12T23:40:04.235Z,3.51
2022-11-12T23:42:49.691Z,3.52
2022-11-12T23:45:38.173Z,3.43
2022-11-12T23:48:23.616Z,3.43
2022-11-12T23:51:27.665Z,3.40
2022-11-12T23:54:12.850Z,3.45
2022-11-12T23:56:58.117Z,3.43
2022-11-12T23:59:43.458Z,3.33
